Terminal Aerodrome Forecast
Issued by NWS

Home | Current Version | Previous Version | Text Only | Print | Product List | Glossary On
Versions: 1 2 3 4 5 6 7 8 9 10 11 12 13 14 15 16 17 18 19
000
FTUS45 KABQ 211740
TAFLVS
TAF
KLVS 211740Z 2118/2218 20012G20KT P6SM FEW015 BKN035
     FM212200 17015G25KT P6SM VCSH BKN050
      TEMPO 2123/2202 VRB22G30KT TSRA SCT050CB
     FM220200 17010KT 6SM RA BKN025
     FM221000 20008KT P6SM VCSH BKN015=

USA.gov is the U.S. government's official web portal to all federal, state and local government web resources and services.